Terminal Aerodrome Forecast
Issued by NWS Wilmington, NC

Home | Current Version | Previous Version | Text Only | Print | Product List | Glossary On
Versions: 1 2 3 4 5 6 7 8 9 10 11 12 13 14 15 16 17 18 19 20
428
FTUS42 KILM 260948 AAB
TAFILM
TAF AMD
KILM 260948Z 2610/2706 02007KT P6SM FEW006 SCT015 BKN090
     FM261400 07009KT P6SM BKN025
     FM261800 10010KT P6SM SCT040 BKN250
     FM270100 09005KT P6SM SCT250=

USA.gov is the U.S. government's official web portal to all federal, state and local government web resources and services.